sensor_id;sensor_type;location;lat;lon;timestamp;pressure;altitude;pressure_sealevel;temperature;humidity
31082;BME280;17737;52.586;13.284;2022-12-24T00:01:34;99882.50;;;5.41;94.37
31082;BME280;17737;52.586;13.284;2022-12-24T00:04:02;99896.31;;;5.37;94.47
31082;BME280;17737;52.586;13.284;2022-12-24T00:06:31;99884.81;;;5.36;95.19
31082;BME280;17737;52.586;13.284;2022-12-24T00:09:00;99892.94;;;5.35;95.06
31082;BME280;17737;52.586;13.284;2022-12-24T00:11:29;99893.63;;;5.37;95.15
31082;BME280;17737;52.586;13.284;2022-12-24T00:13:57;99891.97;;;5.36;94.91
31082;BME280;17737;52.586;13.284;2022-12-24T00:16:25;99894.81;;;5.34;95.21
31082;BME280;17737;52.586;13.284;2022-12-24T00:18:53;99884.66;;;5.38;94.98
31082;BME280;17737;52.586;13.284;2022-12-24T00:21:21;99880.75;;;5.32;94.54
31082;BME280;17737;52.586;13.284;2022-12-24T00:23:49;99886.09;;;5.32;94.27
31082;BME280;17737;52.586;13.284;2022-12-24T00:26:18;99887.59;;;5.35;94.33
31082;BME280;17737;52.586;13.284;2022-12-24T00:28:46;99885.78;;;5.35;94.46
31082;BME280;17737;52.586;13.284;2022-12-24T00:31:16;99889.81;;;5.39;93.97
31082;BME280;17737;52.586;13.284;2022-12-24T00:33:46;99890.28;;;5.35;94.04
31082;BME280;17737;52.586;13.284;2022-12-24T00:36:14;99896.63;;;5.34;94.25
31082;BME280;17737;52.586;13.284;2022-12-24T00:38:43;99894.28;;;5.31;94.40
31082;BME280;17737;52.586;13.284;2022-12-24T00:41:13;99891.44;;;5.32;94.79
31082;BME280;17737;52.586;13.284;2022-12-24T00:43:54;99896.78;;;5.32;94.60
31082;BME280;17737;52.586;13.284;2022-12-24T00:46:24;99891.28;;;5.34;94.01
31082;BME280;17737;52.586;13.284;2022-12-24T00:48:54;99903.09;;;5.31;94.32
31082;BME280;17737;52.586;13.284;2022-12-24T00:51:22;99905.66;;;5.33;94.27
31082;BME280;17737;52.586;13.284;2022-12-24T00:53:51;99904.44;;;5.27;93.90
31082;BME280;17737;52.586;13.284;2022-12-24T00:56:20;99906.41;;;5.25;94.42
31082;BME280;17737;52.586;13.284;2022-12-24T00:58:49;99908.53;;;5.22;94.39
31082;BME280;17737;52.586;13.284;2022-12-24T01:01:19;99910.22;;;5.23;94.57
31082;BME280;17737;52.586;13.284;2022-12-24T01:03:49;99916.56;;;5.22;93.92
31082;BME280;17737;52.586;13.284;2022-12-24T01:06:19;99920.44;;;5.27;94.23
31082;BME280;17737;52.586;13.284;2022-12-24T01:08:49;99918.31;;;5.31;94.30
31082;BME280;17737;52.586;13.284;2022-12-24T01:11:18;99925.78;;;5.27;93.85
31082;BME280;17737;52.586;13.284;2022-12-24T01:13:46;99920.59;;;5.26;93.83
31082;BME280;17737;52.586;13.284;2022-12-24T01:16:17;99926.63;;;5.28;93.78
31082;BME280;17737;52.586;13.284;2022-12-24T01:18:47;99930.44;;;5.25;94.78
31082;BME280;17737;52.586;13.284;2022-12-24T01:21:15;99936.09;;;5.22;94.71
31082;BME280;17737;52.586;13.284;2022-12-24T01:23:43;99926.53;;;5.20;94.26
31082;BME280;17737;52.586;13.284;2022-12-24T01:26:11;99930.06;;;5.20;94.60
31082;BME280;17737;52.586;13.284;2022-12-24T01:28:40;99936.69;;;5.16;94.60
31082;BME280;17737;52.586;13.284;2022-12-24T01:31:10;99935.50;;;5.11;93.96
31082;BME280;17737;52.586;13.284;2022-12-24T01:33:41;99932.97;;;5.09;94.35
31082;BME280;17737;52.586;13.284;2022-12-24T01:36:10;99934.66;;;5.10;94.06
31082;BME280;17737;52.586;13.284;2022-12-24T01:38:39;99935.50;;;5.11;94.03
31082;BME280;17737;52.586;13.284;2022-12-24T01:41:14;99942.34;;;5.13;94.13
31082;BME280;17737;52.586;13.284;2022-12-24T01:44:19;99946.72;;;5.14;93.84
31082;BME280;17737;52.586;13.284;2022-12-24T01:46:59;99935.94;;;5.06;93.61
31082;BME280;17737;52.586;13.284;2022-12-24T01:49:36;99940.06;;;5.01;93.92
31082;BME280;17737;52.586;13.284;2022-12-24T01:52:11;99948.22;;;4.99;93.74
31082;BME280;17737;52.586;13.284;2022-12-24T01:54:43;99959.91;;;4.98;94.19
31082;BME280;17737;52.586;13.284;2022-12-24T01:57:19;99965.94;;;5.00;94.19
31082;BME280;17737;52.586;13.284;2022-12-24T01:59:52;99964.22;;;4.99;94.42
31082;BME280;17737;52.586;13.284;2022-12-24T02:02:25;99973.09;;;5.00;94.13
31082;BME280;17737;52.586;13.284;2022-12-24T02:05:03;99976.28;;;5.03;93.96
31082;BME280;17737;52.586;13.284;2022-12-24T02:07:35;99979.19;;;5.10;93.69
31082;BME280;17737;52.586;13.284;2022-12-24T02:10:05;99984.38;;;5.11;93.76
31082;BME280;17737;52.586;13.284;2022-12-24T02:12:36;99983.56;;;5.11;93.96
31082;BME280;17737;52.586;13.284;2022-12-24T02:15:09;99991.84;;;5.08;93.42
31082;BME280;17737;52.586;13.284;2022-12-24T02:17:48;99993.84;;;5.06;93.82
31082;BME280;17737;52.586;13.284;2022-12-24T02:21:05;99995.69;;;5.05;93.62
31082;BME280;17737;52.586;13.284;2022-12-24T02:24:05;99997.97;;;5.00;93.97
31082;BME280;17737;52.586;13.284;2022-12-24T02:27:07;99998.19;;;5.07;93.54
31082;BME280;17737;52.586;13.284;2022-12-24T02:30:09;100005.97;;;5.00;94.02
31082;BME280;17737;52.586;13.284;2022-12-24T02:32:55;100009.88;;;5.06;94.25
31082;BME280;17737;52.586;13.284;2022-12-24T02:35:41;100016.50;;;5.02;94.28
31082;BME280;17737;52.586;13.284;2022-12-24T02:38:18;100014.69;;;5.02;94.55
31082;BME280;17737;52.586;13.284;2022-12-24T02:40:55;100023.72;;;5.09;94.43
31082;BME280;17737;52.586;13.284;2022-12-24T02:43:32;100026.88;;;5.05;94.12
31082;BME280;17737;52.586;13.284;2022-12-24T02:46:07;100030.63;;;5.12;93.57
31082;BME280;17737;52.586;13.284;2022-12-24T02:48:40;100024.59;;;5.10;93.58
31082;BME280;17737;52.586;13.284;2022-12-24T02:51:11;100034.56;;;5.08;93.61
31082;BME280;17737;52.586;13.284;2022-12-24T02:53:40;100035.97;;;5.12;93.93
31082;BME280;17737;52.586;13.284;2022-12-24T02:56:25;100033.44;;;5.10;93.46
31082;BME280;17737;52.586;13.284;2022-12-24T02:59:18;100035.81;;;5.13;93.58
31082;BME280;17737;52.586;13.284;2022-12-24T03:02:10;100049.06;;;5.23;93.66
31082;BME280;17737;52.586;13.284;2022-12-24T03:04:56;100046.41;;;5.23;93.12
31082;BME280;17737;52.586;13.284;2022-12-24T03:07:36;100041.91;;;5.23;92.91
31082;BME280;17737;52.586;13.284;2022-12-24T03:10:18;100043.81;;;5.13;93.76
31082;BME280;17737;52.586;13.284;2022-12-24T03:12:53;100041.84;;;5.15;93.20
31082;BME280;17737;52.586;13.284;2022-12-24T03:15:25;100047.03;;;5.17;93.37
31082;BME280;17737;52.586;13.284;2022-12-24T03:17:59;100041.69;;;5.17;93.37
31082;BME280;17737;52.586;13.284;2022-12-24T03:20:34;100051.97;;;5.12;93.55
31082;BME280;17737;52.586;13.284;2022-12-24T03:23:06;100056.84;;;5.16;93.46
31082;BME280;17737;52.586;13.284;2022-12-24T03:25:38;100056.84;;;5.16;93.65
31082;BME280;17737;52.586;13.284;2022-12-24T03:28:10;100062.34;;;5.15;93.56
31082;BME280;17737;52.586;13.284;2022-12-24T03:30:44;100058.88;;;5.14;93.61
31082;BME280;17737;52.586;13.284;2022-12-24T03:33:15;100061.53;;;5.14;93.57
31082;BME280;17737;52.586;13.284;2022-12-24T03:35:44;100076.41;;;5.17;93.59
31082;BME280;17737;52.586;13.284;2022-12-24T03:38:12;100078.91;;;5.18;93.47
31082;BME280;17737;52.586;13.284;2022-12-24T03:40:40;100082.03;;;5.14;93.08
31082;BME280;17737;52.586;13.284;2022-12-24T03:43:08;100081.88;;;5.15;92.96
31082;BME280;17737;52.586;13.284;2022-12-24T03:45:36;100086.78;;;5.20;93.33
31082;BME280;17737;52.586;13.284;2022-12-24T03:48:05;100086.63;;;5.21;93.04
31082;BME280;17737;52.586;13.284;2022-12-24T03:50:34;100089.75;;;5.17;93.30
31082;BME280;17737;52.586;13.284;2022-12-24T03:53:02;100091.69;;;5.24;92.89
31082;BME280;17737;52.586;13.284;2022-12-24T03:55:30;100100.66;;;5.23;92.80
31082;BME280;17737;52.586;13.284;2022-12-24T03:57:58;100105.44;;;5.29;93.27
31082;BME280;17737;52.586;13.284;2022-12-24T04:00:26;100104.72;;;5.27;92.62
31082;BME280;17737;52.586;13.284;2022-12-24T04:02:54;100112.44;;;5.30;92.50
31082;BME280;17737;52.586;13.284;2022-12-24T04:05:23;100113.94;;;5.15;93.34
31082;BME280;17737;52.586;13.284;2022-12-24T04:07:52;100108.09;;;5.29;93.48
31082;BME280;17737;52.586;13.284;2022-12-24T04:10:20;100104.25;;;5.32;93.18
31082;BME280;17737;52.586;13.284;2022-12-24T04:12:48;100104.13;;;5.33;92.43
31082;BME280;17737;52.586;13.284;2022-12-24T04:15:16;100094.59;;;5.31;92.59
31082;BME280;17737;52.586;13.284;2022-12-24T04:17:44;100104.88;;;5.26;92.57
31082;BME280;17737;52.586;13.284;2022-12-24T04:20:12;100113.28;;;5.31;92.93
31082;BME280;17737;52.586;13.284;2022-12-24T04:22:40;100122.13;;;5.31;92.17
31082;BME280;17737;52.586;13.284;2022-12-24T04:25:10;100119.59;;;5.30;92.33
31082;BME280;17737;52.586;13.284;2022-12-24T04:27:37;100119.75;;;5.28;91.90
31082;BME280;17737;52.586;13.284;2022-12-24T04:30:07;100124.28;;;5.28;92.43
31082;BME280;17737;52.586;13.284;2022-12-24T04:32:35;100128.63;;;5.29;92.35
31082;BME280;17737;52.586;13.284;2022-12-24T04:35:04;100134.09;;;5.27;92.90
31082;BME280;17737;52.586;13.284;2022-12-24T04:37:32;100134.81;;;5.29;92.45
31082;BME280;17737;52.586;13.284;2022-12-24T04:40:01;100139.75;;;5.24;92.48
31082;BME280;17737;52.586;13.284;2022-12-24T04:42:30;100148.75;;;5.23;92.20
31082;BME280;17737;52.586;13.284;2022-12-24T04:44:58;100156.03;;;5.31;92.59
31082;BME280;17737;52.586;13.284;2022-12-24T04:47:26;100160.84;;;5.18;92.77
31082;BME280;17737;52.586;13.284;2022-12-24T04:49:54;100164.66;;;5.42;92.58
31082;BME280;17737;52.586;13.284;2022-12-24T04:52:22;100150.72;;;5.21;92.81
31082;BME280;17737;52.586;13.284;2022-12-24T04:54:50;100159.63;;;5.39;92.49
31082;BME280;17737;52.586;13.284;2022-12-24T04:57:18;100158.94;;;5.10;93.62
31082;BME280;17737;52.586;13.284;2022-12-24T04:59:48;100158.94;;;5.10;93.79
31082;BME280;17737;52.586;13.284;2022-12-24T05:02:16;100160.91;;;5.08;94.39
31082;BME280;17737;52.586;13.284;2022-12-24T05:04:44;100158.63;;;5.13;93.85
31082;BME280;17737;52.586;13.284;2022-12-24T05:07:12;100165.31;;;5.27;93.70
31082;BME280;17737;52.586;13.284;2022-12-24T05:09:40;100170.66;;;5.27;92.98
31082;BME280;17737;52.586;13.284;2022-12-24T05:12:08;100163.00;;;5.14;93.34
31082;BME280;17737;52.586;13.284;2022-12-24T05:14:38;100166.94;;;5.10;94.06
31082;BME280;17737;52.586;13.284;2022-12-24T05:17:07;100164.56;;;5.07;94.72
31082;BME280;17737;52.586;13.284;2022-12-24T05:19:36;100161.31;;;5.13;93.74
31082;BME280;17737;52.586;13.284;2022-12-24T05:22:04;100156.81;;;5.14;93.44
31082;BME280;17737;52.586;13.284;2022-12-24T05:24:50;100159.81;;;5.28;93.71
31082;BME280;17737;52.586;13.284;2022-12-24T05:27:35;100160.34;;;5.32;92.96
31082;BME280;17737;52.586;13.284;2022-12-24T05:30:04;100164.44;;;5.36;92.91
31082;BME280;17737;52.586;13.284;2022-12-24T05:32:34;100163.63;;;5.26;93.09
31082;BME280;17737;52.586;13.284;2022-12-24T05:35:03;100167.59;;;5.22;92.72
31082;BME280;17737;52.586;13.284;2022-12-24T05:37:31;100169.81;;;5.26;93.33
31082;BME280;17737;52.586;13.284;2022-12-24T05:39:59;100167.28;;;5.25;92.79
31082;BME280;17737;52.586;13.284;2022-12-24T05:42:27;100172.94;;;5.22;93.50
31082;BME280;17737;52.586;13.284;2022-12-24T05:44:55;100175.34;;;5.15;93.56
31082;BME280;17737;52.586;13.284;2022-12-24T05:47:23;100181.03;;;5.30;93.40
31082;BME280;17737;52.586;13.284;2022-12-24T05:49:53;100183.38;;;5.15;93.66
31082;BME280;17737;52.586;13.284;2022-12-24T05:52:21;100192.25;;;5.33;92.83
31082;BME280;17737;52.586;13.284;2022-12-24T05:54:49;100195.53;;;5.27;93.53
31082;BME280;17737;52.586;13.284;2022-12-24T05:57:17;100206.91;;;5.29;93.55
31082;BME280;17737;52.586;13.284;2022-12-24T05:59:45;100203.25;;;5.30;92.39
31082;BME280;17737;52.586;13.284;2022-12-24T06:02:14;100201.97;;;5.34;93.08
31082;BME280;17737;52.586;13.284;2022-12-24T06:04:42;100210.56;;;5.28;92.75
31082;BME280;17737;52.586;13.284;2022-12-24T06:07:11;100207.56;;;5.41;92.63
31082;BME280;17737;52.586;13.284;2022-12-24T06:09:39;100212.50;;;5.36;92.01
31082;BME280;17737;52.586;13.284;2022-12-24T06:12:07;100213.63;;;5.33;92.76
31082;BME280;17737;52.586;13.284;2022-12-24T06:14:35;100209.19;;;5.24;92.75
31082;BME280;17737;52.586;13.284;2022-12-24T06:17:03;100218.00;;;5.34;92.92
31082;BME280;17737;52.586;13.284;2022-12-24T06:19:31;100218.22;;;5.14;93.32
31082;BME280;17737;52.586;13.284;2022-12-24T06:21:59;100228.91;;;5.04;93.48
31082;BME280;17737;52.586;13.284;2022-12-24T06:24:29;100225.44;;;5.04;93.62
31082;BME280;17737;52.586;13.284;2022-12-24T06:26:57;100235.91;;;5.15;93.45
31082;BME280;17737;52.586;13.284;2022-12-24T06:29:25;100235.09;;;5.14;93.60
31082;BME280;17737;52.586;13.284;2022-12-24T06:31:53;100235.19;;;5.22;93.14
31082;BME280;17737;52.586;13.284;2022-12-24T06:34:21;100238.56;;;5.24;93.16
31082;BME280;17737;52.586;13.284;2022-12-24T06:36:49;100244.00;;;5.32;92.86
31082;BME280;17737;52.586;13.284;2022-12-24T06:39:17;100251.63;;;5.27;93.28
31082;BME280;17737;52.586;13.284;2022-12-24T06:41:46;100250.47;;;5.30;93.45
31082;BME280;17737;52.586;13.284;2022-12-24T06:44:14;100245.97;;;5.30;93.18
31082;BME280;17737;52.586;13.284;2022-12-24T06:46:42;100242.03;;;5.34;92.58
31082;BME280;17737;52.586;13.284;2022-12-24T06:49:10;100244.59;;;5.26;93.58
31082;BME280;17737;52.586;13.284;2022-12-24T06:51:38;100248.75;;;5.38;92.90
31082;BME280;17737;52.586;13.284;2022-12-24T06:54:07;100252.28;;;5.39;92.17
31082;BME280;17737;52.586;13.284;2022-12-24T06:56:35;100262.72;;;5.32;92.61
31082;BME280;17737;52.586;13.284;2022-12-24T06:59:04;100256.09;;;5.36;92.78
31082;BME280;17737;52.586;13.284;2022-12-24T07:01:32;100267.06;;;5.33;93.26
31082;BME280;17737;52.586;13.284;2022-12-24T07:04:00;100273.50;;;5.40;92.51
31082;BME280;17737;52.586;13.284;2022-12-24T07:06:29;100285.03;;;5.31;92.66
31082;BME280;17737;52.586;13.284;2022-12-24T07:08:57;100286.75;;;5.32;92.88
31082;BME280;17737;52.586;13.284;2022-12-24T07:11:25;100287.16;;;5.37;92.62
31082;BME280;17737;52.586;13.284;2022-12-24T07:13:53;100294.00;;;5.49;92.66
31082;BME280;17737;52.586;13.284;2022-12-24T07:16:22;100296.56;;;5.41;92.10
31082;BME280;17737;52.586;13.284;2022-12-24T07:18:50;100303.75;;;5.31;92.73
31082;BME280;17737;52.586;13.284;2022-12-24T07:21:18;100311.34;;;5.36;92.97
31082;BME280;17737;52.586;13.284;2022-12-24T07:23:46;100312.00;;;5.47;92.44
31082;BME280;17737;52.586;13.284;2022-12-24T07:26:14;100311.19;;;5.37;92.07
31082;BME280;17737;52.586;13.284;2022-12-24T07:28:42;100320.88;;;5.38;92.33
31082;BME280;17737;52.586;13.284;2022-12-24T07:31:10;100314.66;;;5.47;91.83
31082;BME280;17737;52.586;13.284;2022-12-24T07:33:40;100317.63;;;5.44;91.74
31082;BME280;17737;52.586;13.284;2022-12-24T07:36:14;100313.47;;;5.23;93.12
31082;BME280;17737;52.586;13.284;2022-12-24T07:38:45;100321.19;;;5.35;93.24
31082;BME280;17737;52.586;13.284;2022-12-24T07:41:13;100316.69;;;5.36;92.87
31082;BME280;17737;52.586;13.284;2022-12-24T07:43:41;100320.72;;;5.40;92.31
31082;BME280;17737;52.586;13.284;2022-12-24T07:46:10;100327.22;;;5.37;92.30
31082;BME280;17737;52.586;13.284;2022-12-24T07:48:39;100331.72;;;5.37;92.57
31082;BME280;17737;52.586;13.284;2022-12-24T07:51:07;100330.75;;;5.38;92.58
31082;BME280;17737;52.586;13.284;2022-12-24T07:53:35;100339.06;;;5.25;93.22
31082;BME280;17737;52.586;13.284;2022-12-24T07:56:04;100341.88;;;5.24;93.86
31082;BME280;17737;52.586;13.284;2022-12-24T07:58:38;100342.59;;;5.26;93.71
31082;BME280;17737;52.586;13.284;2022-12-24T08:01:06;100350.59;;;5.16;93.74
31082;BME280;17737;52.586;13.284;2022-12-24T08:03:35;100339.03;;;5.35;93.30
31082;BME280;17737;52.586;13.284;2022-12-24T08:06:05;100349.59;;;5.36;93.09
31082;BME280;17737;52.586;13.284;2022-12-24T08:08:33;100340.97;;;5.42;93.61
31082;BME280;17737;52.586;13.284;2022-12-24T08:11:05;100345.22;;;5.45;92.66
31082;BME280;17737;52.586;13.284;2022-12-24T08:13:33;100350.00;;;5.41;93.30
31082;BME280;17737;52.586;13.284;2022-12-24T08:16:02;100352.47;;;5.52;92.83
31082;BME280;17737;52.586;13.284;2022-12-24T08:18:30;100348.53;;;5.56;92.40
31082;BME280;17737;52.586;13.284;2022-12-24T08:20:58;100355.00;;;5.54;92.74
31082;BME280;17737;52.586;13.284;2022-12-24T08:23:27;100360.59;;;5.60;92.09
31082;BME280;17737;52.586;13.284;2022-12-24T08:25:55;100355.97;;;5.62;91.84
31082;BME280;17737;52.586;13.284;2022-12-24T08:28:23;100356.81;;;5.53;92.19
31082;BME280;17737;52.586;13.284;2022-12-24T08:30:52;100364.03;;;5.43;92.82
31082;BME280;17737;52.586;13.284;2022-12-24T08:33:20;100369.56;;;5.32;92.85
31082;BME280;17737;52.586;13.284;2022-12-24T08:35:49;100367.84;;;5.31;93.82
31082;BME280;17737;52.586;13.284;2022-12-24T08:38:19;100371.63;;;5.48;93.84
31082;BME280;17737;52.586;13.284;2022-12-24T08:40:51;100374.97;;;5.59;92.63
31082;BME280;17737;52.586;13.284;2022-12-24T08:43:20;100379.16;;;5.62;91.94
31082;BME280;17737;52.586;13.284;2022-12-24T08:45:51;100392.81;;;5.59;92.70
31082;BME280;17737;52.586;13.284;2022-12-24T08:48:19;100390.06;;;5.41;92.84
31082;BME280;17737;52.586;13.284;2022-12-24T08:50:47;100391.44;;;5.55;92.81
31082;BME280;17737;52.586;13.284;2022-12-24T08:53:15;100393.72;;;5.50;93.28
31082;BME280;17737;52.586;13.284;2022-12-24T08:55:43;100396.63;;;5.56;93.05
31082;BME280;17737;52.586;13.284;2022-12-24T08:58:22;100387.72;;;5.65;92.23
31082;BME280;17737;52.586;13.284;2022-12-24T09:00:50;100395.63;;;5.57;92.97
31082;BME280;17737;52.586;13.284;2022-12-24T09:03:18;100400.53;;;5.62;92.54
31082;BME280;17737;52.586;13.284;2022-12-24T09:05:53;100397.56;;;5.74;93.18
31082;BME280;17737;52.586;13.284;2022-12-24T09:08:21;100397.09;;;5.79;91.87
31082;BME280;17737;52.586;13.284;2022-12-24T09:10:49;100403.75;;;5.75;92.41
31082;BME280;17737;52.586;13.284;2022-12-24T09:13:17;100412.19;;;5.70;92.09
31082;BME280;17737;52.586;13.284;2022-12-24T09:15:53;100411.25;;;5.52;93.15
31082;BME280;17737;52.586;13.284;2022-12-24T09:18:21;100416.56;;;5.62;92.36
31082;BME280;17737;52.586;13.284;2022-12-24T09:20:50;100425.56;;;5.70;92.78
31082;BME280;17737;52.586;13.284;2022-12-24T09:23:23;100425.84;;;5.67;92.45
31082;BME280;17737;52.586;13.284;2022-12-24T09:25:51;100429.34;;;5.87;91.17
31082;BME280;17737;52.586;13.284;2022-12-24T09:28:19;100439.88;;;5.79;92.28
31082;BME280;17737;52.586;13.284;2022-12-24T09:30:56;100439.19;;;5.86;91.69
31082;BME280;17737;52.586;13.284;2022-12-24T09:33:26;100452.16;;;5.62;92.19
31082;BME280;17737;52.586;13.284;2022-12-24T09:35:55;100460.44;;;5.69;92.56
31082;BME280;17737;52.586;13.284;2022-12-24T09:38:23;100468.34;;;5.61;92.90
31082;BME280;17737;52.586;13.284;2022-12-24T09:40:52;100466.91;;;5.76;92.52
31082;BME280;17737;52.586;13.284;2022-12-24T09:43:23;100461.59;;;5.85;91.17
31082;BME280;17737;52.586;13.284;2022-12-24T09:46:03;100462.41;;;5.76;92.17
31082;BME280;17737;52.586;13.284;2022-12-24T09:48:39;100465.13;;;5.57;92.53
31082;BME280;17737;52.586;13.284;2022-12-24T09:51:14;100473.69;;;5.61;93.20
31082;BME280;17737;52.586;13.284;2022-12-24T09:53:55;100470.00;;;5.90;91.75
31082;BME280;17737;52.586;13.284;2022-12-24T09:56:30;100484.66;;;5.86;94.14
31082;BME280;17737;52.586;13.284;2022-12-24T09:59:03;100480.13;;;5.96;92.69
31082;BME280;17737;52.586;13.284;2022-12-24T10:01:34;100487.16;;;5.88;92.59
31082;BME280;17737;52.586;13.284;2022-12-24T10:04:03;100484.78;;;5.85;92.19
31082;BME280;17737;52.586;13.284;2022-12-24T10:06:41;100489.84;;;5.97;94.09
31082;BME280;17737;52.586;13.284;2022-12-24T10:09:23;100496.56;;;6.01;92.87
31082;BME280;17737;52.586;13.284;2022-12-24T10:12:08;100496.19;;;5.87;93.54
31082;BME280;17737;52.586;13.284;2022-12-24T10:14:54;100494.50;;;5.86;93.21
31082;BME280;17737;52.586;13.284;2022-12-24T10:17:42;100504.22;;;5.87;93.16
31082;BME280;17737;52.586;13.284;2022-12-24T10:20:38;100504.59;;;6.01;92.82
31082;BME280;17737;52.586;13.284;2022-12-24T10:23:18;100512.47;;;6.03;93.25
31082;BME280;17737;52.586;13.284;2022-12-24T10:25:56;100516.09;;;6.12;93.38
31082;BME280;17737;52.586;13.284;2022-12-24T10:28:39;100512.59;;;6.11;93.00
31082;BME280;17737;52.586;13.284;2022-12-24T10:31:13;100515.38;;;6.09;93.52
31082;BME280;17737;52.586;13.284;2022-12-24T10:33:44;100522.69;;;6.17;94.00
31082;BME280;17737;52.586;13.284;2022-12-24T10:36:20;100531.59;;;6.18;93.16
31082;BME280;17737;52.586;13.284;2022-12-24T10:38:52;100529.06;;;6.16;92.87
31082;BME280;17737;52.586;13.284;2022-12-24T10:41:20;100542.44;;;6.06;92.58
31082;BME280;17737;52.586;13.284;2022-12-24T10:43:51;100550.16;;;6.19;92.61
31082;BME280;17737;52.586;13.284;2022-12-24T10:46:24;100551.56;;;6.14;92.76
31082;BME280;17737;52.586;13.284;2022-12-24T10:49:03;100547.94;;;6.15;92.55
31082;BME280;17737;52.586;13.284;2022-12-24T10:51:38;100549.84;;;6.22;92.68
31082;BME280;17737;52.586;13.284;2022-12-24T10:54:12;100552.94;;;6.27;92.30
31082;BME280;17737;52.586;13.284;2022-12-24T10:56:55;100557.78;;;6.14;92.69
31082;BME280;17737;52.586;13.284;2022-12-24T10:59:28;100566.75;;;6.23;93.18
31082;BME280;17737;52.586;13.284;2022-12-24T11:01:59;100570.00;;;6.17;92.62
31082;BME280;17737;52.586;13.284;2022-12-24T11:04:31;100570.44;;;6.12;93.14
31082;BME280;17737;52.586;13.284;2022-12-24T11:07:02;100563.69;;;6.18;92.72
31082;BME280;17737;52.586;13.284;2022-12-24T11:09:34;100573.81;;;6.14;93.26
31082;BME280;17737;52.586;13.284;2022-12-24T11:12:05;100572.97;;;6.14;93.38
31082;BME280;17737;52.586;13.284;2022-12-24T11:14:43;100571.31;;;5.93;93.65
31082;BME280;17737;52.586;13.284;2022-12-24T11:17:18;100577.66;;;6.02;93.62
31082;BME280;17737;52.586;13.284;2022-12-24T11:19:50;100576.78;;;6.01;94.08
31082;BME280;17737;52.586;13.284;2022-12-24T11:22:21;100581.88;;;5.95;93.74
31082;BME280;17737;52.586;13.284;2022-12-24T11:25:02;100581.44;;;5.99;94.14
31082;BME280;17737;52.586;13.284;2022-12-24T11:27:42;100580.72;;;6.07;93.83
31082;BME280;17737;52.586;13.284;2022-12-24T11:30:25;100581.44;;;6.09;93.66
31082;BME280;17737;52.586;13.284;2022-12-24T11:33:18;100583.84;;;6.02;94.01
31082;BME280;17737;52.586;13.284;2022-12-24T11:35:53;100587.91;;;6.06;93.36
31082;BME280;17737;52.586;13.284;2022-12-24T11:38:29;100596.63;;;6.08;94.10
31082;BME280;17737;52.586;13.284;2022-12-24T11:41:01;100588.31;;;6.12;93.91
31082;BME280;17737;52.586;13.284;2022-12-24T11:43:50;100585.78;;;6.20;93.74
31082;BME280;17737;52.586;13.284;2022-12-24T11:46:36;100577.16;;;6.26;93.80
31082;BME280;17737;52.586;13.284;2022-12-24T11:49:16;100583.34;;;6.36;93.01
31082;BME280;17737;52.586;13.284;2022-12-24T11:52:16;100591.06;;;6.39;93.07
31082;BME280;17737;52.586;13.284;2022-12-24T11:55:11;100593.63;;;6.31;93.21
31082;BME280;17737;52.586;13.284;2022-12-24T11:57:56;100600.53;;;6.24;93.10
31082;BME280;17737;52.586;13.284;2022-12-24T12:00:29;100593.47;;;6.32;92.94
31082;BME280;17737;52.586;13.284;2022-12-24T12:02:59;100598.28;;;6.29;93.95
31082;BME280;17737;52.586;13.284;2022-12-24T12:05:32;100603.06;;;6.35;93.89
31082;BME280;17737;52.586;13.284;2022-12-24T12:08:09;100595.19;;;6.33;93.45
31082;BME280;17737;52.586;13.284;2022-12-24T12:10:44;100611.94;;;6.26;93.75
31082;BME280;17737;52.586;13.284;2022-12-24T12:13:18;100606.88;;;6.23;93.94
31082;BME280;17737;52.586;13.284;2022-12-24T12:15:56;100613.91;;;6.33;93.34
31082;BME280;17737;52.586;13.284;2022-12-24T12:18:35;100606.97;;;6.40;93.44
31082;BME280;17737;52.586;13.284;2022-12-24T12:21:10;100607.25;;;6.37;93.75
31082;BME280;17737;52.586;13.284;2022-12-24T12:23:48;100612.88;;;6.44;93.82
31082;BME280;17737;52.586;13.284;2022-12-24T12:26:23;100615.00;;;6.40;93.53
31082;BME280;17737;52.586;13.284;2022-12-24T12:28:55;100614.13;;;6.49;93.71
31082;BME280;17737;52.586;13.284;2022-12-24T12:31:31;100616.50;;;6.52;93.93
31082;BME280;17737;52.586;13.284;2022-12-24T12:34:08;100631.31;;;6.56;93.38
31082;BME280;17737;52.586;13.284;2022-12-24T12:36:43;100628.19;;;6.61;93.90
31082;BME280;17737;52.586;13.284;2022-12-24T12:39:15;100628.47;;;6.58;94.03
31082;BME280;17737;52.586;13.284;2022-12-24T12:41:50;100632.97;;;6.67;93.37
31082;BME280;17737;52.586;13.284;2022-12-24T12:44:39;100630.28;;;6.67;93.66
31082;BME280;17737;52.586;13.284;2022-12-24T12:47:30;100628.00;;;6.72;93.87
31082;BME280;17737;52.586;13.284;2022-12-24T12:50:13;100638.94;;;6.88;93.28
31082;BME280;17737;52.586;13.284;2022-12-24T12:53:09;100637.94;;;6.89;92.83
31082;BME280;17737;52.586;13.284;2022-12-24T12:55:57;100622.59;;;6.91;93.14
31082;BME280;17737;52.586;13.284;2022-12-24T12:58:40;100635.03;;;6.82;93.19
31082;BME280;17737;52.586;13.284;2022-12-24T13:01:19;100628.38;;;6.86;93.11
31082;BME280;17737;52.586;13.284;2022-12-24T13:04:15;100644.72;;;6.93;92.82
31082;BME280;17737;52.586;13.284;2022-12-24T13:10:34;100642.16;;;6.91;93.05
31082;BME280;17737;52.586;13.284;2022-12-24T13:13:39;100640.88;;;6.95;93.33
31082;BME280;17737;52.586;13.284;2022-12-24T13:16:47;100642.69;;;7.04;92.66
31082;BME280;17737;52.586;13.284;2022-12-24T13:19:47;100645.38;;;6.95;93.36
31082;BME280;17737;52.586;13.284;2022-12-24T13:22:30;100647.19;;;7.04;92.90
31082;BME280;17737;52.586;13.284;2022-12-24T13:24:58;100648.03;;;7.04;93.10
31082;BME280;17737;52.586;13.284;2022-12-24T13:27:29;100649.97;;;7.12;93.47